Larslan, Montana
Current Conditions -  °F | °C
As of 11:53 PM on Monday 20 Oct 2014 (Local Time) from KGGW Reporting Station
Clear Clear  
Wind Chill: 50°   Ceiling: Unl
Heat Index: 50°   Visibility: 10mi
Dew Point: 37°   Wind: 13mph
Humidity: 61%   Direction: 110°ESE
Pressure: 29.72"   Gusts: NA
Location:  48.58°N, 106.19°W
Report Text: KGGW 210553Z AUTO 11011KT 10SM CLR 10/03 A2972 RMK AO2 SLP067 T01000028 10194 20100 57007
Loading
Personal Weather Stations






























Interactive Weather Map
Tropical Storm Tracking
New forecast layout! Learn more

10-Day Weather Forecast

Advertisements
Track Severe Weather on mobile